Time;durP1;ratioP1;P1;durP2;ratioP2;P2;SDS_P1;SDS_P2;PMS_P1;PMS_P2;Temp;Humidity;BMP_temperature;BMP_pressure;BME280_temperature;BME280_humidity;BME280_pressure;Samples;Min_cycle;Max_cycle;Signal;HPM_P1;HPM_P2
2023/08/16 03:01:59;;;;;;;;;;;13.00;99.90;;;;;;5253984;23;19926;-74
2023/08/16 03:04:24;;;;;;;;;;;12.90;99.90;;;;;;4957974;29;19930;-75
2023/08/16 03:06:50;;;;;;;;;;;12.90;99.90;;;;;;4959486;28;19982;-75
2023/08/16 03:09:16;;;;;;;;;;;12.80;99.90;;;;;;4957973;29;19969;-75
2023/08/16 03:11:41;;;;;;;;;;;12.80;99.90;;;;;;4958168;28;19993;-75
2023/08/16 03:14:07;;;;;;;;;;;12.70;99.90;;;;;;4957857;29;19926;-75
2023/08/16 03:16:32;;;;;;;;;;;12.70;99.90;;;;;;4957782;29;19923;-75
2023/08/16 03:19:00;;;;;;;;;;;12.70;99.90;;;;;;4957762;29;19966;-75
2023/08/16 03:21:25;;;;;;;;;;;12.60;99.90;;;;;;4957571;28;20005;-75
2023/08/16 03:23:51;;;;;;;;;;;12.60;99.90;;;;;;4941615;29;20013;-75
2023/08/16 03:26:16;;;;;;;;;;;12.60;99.90;;;;;;4957652;29;19922;-75
2023/08/16 03:28:42;;;;;;;;;;;12.60;99.90;;;;;;4957528;29;19922;-75
2023/08/16 03:31:08;;;;;;;;;;;12.60;99.90;;;;;;4941520;29;19974;-75
2023/08/16 03:33:33;;;;;;;;;;;12.70;99.90;;;;;;4958770;28;19928;-75
2023/08/16 03:35:59;;;;;;;;;;;12.70;99.90;;;;;;4957446;29;20005;-75
2023/08/16 03:38:24;;;;;;;;;;;12.70;99.90;;;;;;4941418;29;19930;-75
2023/08/16 03:40:50;;;;;;;;;;;12.70;99.90;;;;;;4957525;28;20393;-75
2023/08/16 03:43:15;;;;;;;;;;;12.70;99.90;;;;;;4957449;29;20413;-75
2023/08/16 03:45:41;;;;;;;;;;;12.70;99.90;;;;;;4957132;28;20284;-75
2023/08/16 03:48:06;;;;;;;;;;;12.70;99.90;;;;;;4957567;29;20387;-75
2023/08/16 03:50:32;;;;;;;;;;;12.70;99.90;;;;;;4958335;28;20372;-75
2023/08/16 03:52:57;;;;;;;;;;;12.70;99.90;;;;;;4958649;28;19933;-75
2023/08/16 03:55:23;;;;;;;;;;;12.70;99.90;;;;;;4958345;28;19929;-75
2023/08/16 03:57:49;;;;;;;;;;;12.70;99.90;;;;;;4941082;29;19929;-75
2023/08/16 04:00:15;;;;;;;;;;;12.70;99.90;;;;;;4958222;28;19927;-74
2023/08/16 04:02:41;;;;;;;;;;;12.70;99.90;;;;;;4958102;28;19934;-74
2023/08/16 04:05:07;;;;;;;;;;;12.70;99.90;;;;;;4956947;29;19922;-75
2023/08/16 04:07:33;;;;;;;;;;;12.70;99.90;;;;;;4956880;29;19922;-75
2023/08/16 04:09:58;;;;;;;;;;;12.70;99.90;;;;;;4956769;29;19944;-75
2023/08/16 04:12:24;;;;;;;;;;;12.60;99.90;;;;;;4958191;28;19926;-75
2023/08/16 04:14:53;;;;;;;;;;;12.60;99.90;;;;;;4941817;29;19929;-76
2023/08/16 04:17:18;;;;;;;;;;;12.60;99.90;;;;;;4956704;29;20370;-76
2023/08/16 04:19:44;;;;;;;;;;;12.60;99.90;;;;;;4956514;29;20009;-76
2023/08/16 04:22:10;;;;;;;;;;;12.60;99.90;;;;;;4958035;28;19923;-74
2023/08/16 04:24:35;;;;;;;;;;;12.60;99.90;;;;;;4956275;29;19926;-74
2023/08/16 04:27:01;;;;;;;;;;;12.60;99.90;;;;;;4956353;29;20380;-75
2023/08/16 04:29:26;;;;;;;;;;;12.60;99.90;;;;;;4956461;29;19930;-75
2023/08/16 04:31:52;;;;;;;;;;;12.60;99.90;;;;;;4956389;28;19923;-75
2023/08/16 04:34:18;;;;;;;;;;;12.50;99.90;;;;;;4957604;29;19923;-74
2023/08/16 04:36:43;;;;;;;;;;;12.50;99.90;;;;;;4956308;29;19927;-75
2023/08/16 04:39:09;;;;;;;;;;;12.50;99.90;;;;;;4956268;29;19929;-76
2023/08/16 04:41:34;;;;;;;;;;;12.40;99.90;;;;;;4956164;28;19926;-75
2023/08/16 04:44:00;;;;;;;;;;;12.40;99.90;;;;;;4957612;28;19926;-75
2023/08/16 04:46:25;;;;;;;;;;;12.30;99.90;;;;;;4957373;28;19926;-75
2023/08/16 04:48:52;;;;;;;;;;;12.30;99.90;;;;;;4956646;29;19923;-73
2023/08/16 04:51:17;;;;;;;;;;;12.30;99.90;;;;;;4956540;28;20005;-75
2023/08/16 04:53:45;;;;;;;;;;;12.30;99.90;;;;;;4940344;29;20012;-75
2023/08/16 04:56:11;;;;;;;;;;;12.20;99.90;;;;;;4955647;28;20005;-75
2023/08/16 04:58:36;;;;;;;;;;;12.20;99.90;;;;;;4955427;29;20029;-75
2023/08/16 05:01:02;;;;;;;;;;;12.20;99.90;;;;;;4955950;28;19923;-75
2023/08/16 05:03:29;;;;;;;;;;;12.10;99.90;;;;;;4956999;28;19926;-75
2023/08/16 05:05:56;;;;;;;;;;;12.10;99.90;;;;;;4955817;29;20005;-75
2023/08/16 05:08:21;;;;;;;;;;;12.10;99.90;;;;;;4955743;29;19980;-75
2023/08/16 05:10:47;;;;;;;;;;;12.10;99.90;;;;;;4955656;28;19957;-75
2023/08/16 05:13:12;;;;;;;;;;;12.20;99.90;;;;;;4956929;28;20042;-75
2023/08/16 05:15:38;;;;;;;;;;;12.20;99.90;;;;;;4955593;29;19969;-77
2023/08/16 05:18:03;;;;;;;;;;;12.30;99.90;;;;;;4956344;29;19929;-78
2023/08/16 05:20:29;;;;;;;;;;;12.30;99.90;;;;;;4954347;28;19922;-75
2023/08/16 05:22:54;;;;;;;;;;;12.40;99.90;;;;;;4953344;29;20037;-76
2023/08/16 05:25:20;;;;;;;;;;;12.40;99.90;;;;;;4953508;29;20017;-76
2023/08/16 05:27:45;;;;;;;;;;;12.50;99.90;;;;;;4953407;29;19926;-75
2023/08/16 05:30:11;;;;;;;;;;;12.50;99.90;;;;;;4953211;28;19929;-75
2023/08/16 05:32:37;;;;;;;;;;;12.60;99.90;;;;;;4953276;29;19953;-75
2023/08/16 05:35:02;;;;;;;;;;;12.60;99.90;;;;;;4953482;29;19923;-75
2023/08/16 05:37:28;;;;;;;;;;;12.70;99.90;;;;;;4954290;29;19969;-75
2023/08/16 05:39:53;;;;;;;;;;;12.80;99.90;;;;;;4955466;29;19974;-76
2023/08/16 05:42:19;;;;;;;;;;;12.80;99.90;;;;;;4955280;28;20368;-76
2023/08/16 05:44:44;;;;;;;;;;;12.80;99.90;;;;;;4955681;29;20291;-75
2023/08/16 05:47:10;;;;;;;;;;;12.90;99.90;;;;;;4955130;29;20303;-75
2023/08/16 05:49:35;;;;;;;;;;;13.00;99.90;;;;;;4955898;29;20261;-76
2023/08/16 05:52:01;;;;;;;;;;;13.10;99.90;;;;;;4955165;28;19922;-76
2023/08/16 05:54:26;;;;;;;;;;;13.20;99.90;;;;;;4956785;28;19922;-76
2023/08/16 05:56:54;;;;;;;;;;;13.20;99.90;;;;;;4964542;28;20214;-76
2023/08/16 05:59:19;;;;;;;;;;;13.30;99.90;;;;;;4975298;28;19977;-77
2023/08/16 06:01:45;;;;;;;;;;;13.40;99.90;;;;;;4972182;28;19929;-77
2023/08/16 06:04:10;;;;;;;;;;;13.50;99.90;;;;;;4973172;28;19933;-79
2023/08/16 06:06:36;;;;;;;;;;;13.60;99.90;;;;;;4973947;28;19962;-78
2023/08/16 06:09:01;;;;;;;;;;;13.60;99.90;;;;;;4973971;28;20629;-76
2023/08/16 06:11:27;;;;;;;;;;;13.70;99.90;;;;;;4969958;28;20406;-76
2023/08/16 06:13:53;;;;;;;;;;;13.80;99.90;;;;;;4955748;28;19922;-76
2023/08/16 06:16:18;;;;;;;;;;;13.90;99.90;;;;;;4955976;28;19926;-77
2023/08/16 06:18:44;;;;;;;;;;;13.90;99.90;;;;;;4954772;29;20343;-76
2023/08/16 06:21:10;;;;;;;;;;;14.00;99.90;;;;;;4954476;28;20376;-77
2023/08/16 06:23:35;;;;;;;;;;;14.00;99.90;;;;;;4954763;29;19934;-75
2023/08/16 06:26:01;;;;;;;;;;;14.10;99.90;;;;;;4954668;29;19923;-77
2023/08/16 06:28:27;;;;;;;;;;;14.10;99.90;;;;;;4954918;29;19922;-76
2023/08/16 06:30:52;;;;;;;;;;;14.20;99.90;;;;;;4955954;28;20395;-76
2023/08/16 06:33:18;;;;;;;;;;;14.20;99.90;;;;;;4954533;29;19922;-76
2023/08/16 06:35:44;;;;;;;;;;;14.40;99.90;;;;;;4949315;29;19923;-76
2023/08/16 06:38:09;;;;;;;;;;;14.40;99.90;;;;;;4935774;28;20336;-76
2023/08/16 06:40:35;;;;;;;;;;;14.40;99.90;;;;;;4936229;28;20017;-76
2023/08/16 06:43:01;;;;;;;;;;;14.50;99.90;;;;;;4919594;29;19927;-76
2023/08/16 06:45:26;;;;;;;;;;;14.50;99.90;;;;;;4935319;28;19973;-76
2023/08/16 06:47:52;;;;;;;;;;;14.60;99.90;;;;;;4935607;28;20365;-76
2023/08/16 06:50:17;;;;;;;;;;;14.70;99.90;;;;;;4935188;28;20395;-76
2023/08/16 06:52:43;;;;;;;;;;;14.80;99.90;;;;;;4936598;29;20343;-77
2023/08/16 06:55:08;;;;;;;;;;;14.90;99.90;;;;;;4936855;28;19966;-76
2023/08/16 06:57:34;;;;;;;;;;;15.00;99.90;;;;;;4935310;28;19933;-76
2023/08/16 06:59:59;;;;;;;;;;;15.00;99.90;;;;;;4935286;28;19954;-77
2023/08/16 07:02:25;;;;;;;;;;;15.10;99.90;;;;;;4934972;29;19922;-75
2023/08/16 07:04:51;;;;;;;;;;;15.20;99.90;;;;;;4935098;28;19930;-76
2023/08/16 07:07:18;;;;;;;;;;;15.20;99.90;;;;;;4935194;28;20289;-77
2023/08/16 07:09:43;;;;;;;;;;;15.30;99.90;;;;;;4935571;28;19992;-76
2023/08/16 07:12:09;;;;;;;;;;;15.30;99.90;;;;;;4936961;28;19966;-77
2023/08/16 07:14:34;;;;;;;;;;;15.40;99.90;;;;;;4936778;29;19927;-76
2023/08/16 07:17:02;;;;;;;;;;;15.50;99.90;;;;;;4935351;28;19930;-76
2023/08/16 07:19:27;;;;;;;;;;;15.60;99.90;;;;;;4935501;28;20371;-76
2023/08/16 07:21:53;;;;;;;;;;;15.60;99.90;;;;;;4938278;28;20066;-75
2023/08/16 07:24:18;;;;;;;;;;;15.80;99.90;;;;;;4938720;28;19950;-76
2023/08/16 07:26:44;;;;;;;;;;;15.80;99.90;;;;;;4938599;28;19926;-76
2023/08/16 07:29:09;;;;;;;;;;;15.90;99.90;;;;;;4938999;28;20296;-76
2023/08/16 07:31:35;;;;;;;;;;;16.00;99.90;;;;;;4938903;28;19929;-76
2023/08/16 07:34:00;;;;;;;;;;;16.20;99.90;;;;;;4941991;28;19923;-76
2023/08/16 07:36:27;;;;;;;;;;;16.30;99.90;;;;;;4958073;29;20372;-77
2023/08/16 07:38:53;;;;;;;;;;;16.40;99.90;;;;;;4957708;29;20388;-76
2023/08/16 07:41:18;;;;;;;;;;;16.40;99.90;;;;;;4957714;29;20017;-77
2023/08/16 07:43:44;;;;;;;;;;;16.60;99.90;;;;;;4957474;29;20017;-76
2023/08/16 07:46:09;;;;;;;;;;;16.60;99.90;;;;;;4957786;28;20021;-76
2023/08/16 07:48:35;;;;;;;;;;;16.70;99.90;;;;;;4957396;29;19922;-76
2023/08/16 07:51:00;;;;;;;;;;;16.80;99.90;;;;;;4990115;28;20303;-76
2023/08/16 07:53:26;;;;;;;;;;;16.90;99.90;;;;;;4958862;28;20305;-77
2023/08/16 07:55:51;;;;;;;;;;;17.00;99.90;;;;;;4957511;29;19968;-76
2023/08/16 07:58:17;;;;;;;;;;;17.00;99.90;;;;;;4957539;29;20270;-77
2023/08/16 08:00:46;;;;;;;;;;;17.10;99.90;;;;;;4957508;29;20365;-78
2023/08/16 08:03:11;;;;;;;;;;;17.30;99.90;;;;;;4957303;29;19934;-76
2023/08/16 08:05:37;;;;;;;;;;;17.30;99.90;;;;;;4957760;29;19922;-75
2023/08/16 08:08:04;;;;;;;;;;;17.40;99.90;;;;;;4958997;28;19929;-76
2023/08/16 08:10:31;;;;;;;;;;;17.50;99.90;;;;;;4957437;29;20296;-75
2023/08/16 08:12:57;;;;;;;;;;;17.50;99.90;;;;;;4958328;28;19974;-76
2023/08/16 08:15:22;;;;;;;;;;;17.60;99.90;;;;;;4957254;28;19926;-78
2023/08/16 08:17:48;;;;;;;;;;;17.70;99.90;;;;;;4956983;28;19922;-76
2023/08/16 08:20:14;;;;;;;;;;;17.70;99.90;;;;;;4957106;29;19944;-76
2023/08/16 08:22:40;;;;;;;;;;;17.80;99.90;;;;;;4941046;29;19922;-75
2023/08/16 08:25:06;;;;;;;;;;;17.80;99.90;;;;;;4989582;28;20265;-77
2023/08/16 08:27:31;;;;;;;;;;;17.90;99.90;;;;;;4958973;28;20288;-76
2023/08/16 08:29:57;;;;;;;;;;;17.90;99.90;;;;;;4958057;28;19923;-77
2023/08/16 08:32:22;;;;;;;;;;;18.00;99.90;;;;;;4955902;28;19922;-79
2023/08/16 08:34:48;;;;;;;;;;;18.10;99.90;;;;;;4956732;29;19972;-75
2023/08/16 08:37:13;;;;;;;;;;;18.10;99.90;;;;;;4956924;29;20264;-77
2023/08/16 08:39:39;;;;;;;;;;;18.20;99.90;;;;;;4956641;29;20372;-77
2023/08/16 08:42:07;;;;;;;;;;;18.30;99.90;;;;;;4956515;29;19978;-77
2023/08/16 08:44:33;;;;;;;;;;;18.30;99.90;;;;;;4988747;28;20299;-78
2023/08/16 08:46:59;;;;;;;;;;;18.30;99.90;;;;;;4956623;29;19926;-78
2023/08/16 08:49:25;;;;;;;;;;;18.40;99.90;;;;;;4958372;28;19926;-77
2023/08/16 08:51:50;;;;;;;;;;;18.50;99.90;;;;;;4956300;29;19922;-77
2023/08/16 08:54:16;;;;;;;;;;;18.60;99.90;;;;;;4956493;29;19922;-77
2023/08/16 08:56:43;;;;;;;;;;;18.70;99.90;;;;;;4956413;28;19922;-77
2023/08/16 08:59:09;;;;;;;;;;;18.80;99.90;;;;;;4956482;29;19923;-75
2023/08/16 09:01:35;;;;;;;;;;;18.90;99.90;;;;;;4957241;28;19926;-76
2023/08/16 09:04:02;;;;;;;;;;;18.90;99.90;;;;;;4957843;28;19932;-76
2023/08/16 09:06:28;;;;;;;;;;;19.10;99.90;;;;;;4956027;29;19922;-75
2023/08/16 09:08:56;;;;;;;;;;;19.20;99.90;;;;;;4988482;28;19923;-76
2023/08/16 09:11:21;;;;;;;;;;;19.30;99.90;;;;;;4956150;29;19923;-76
2023/08/16 09:13:47;;;;;;;;;;;19.50;99.90;;;;;;4988501;28;20376;-75
2023/08/16 09:16:13;;;;;;;;;;;19.60;99.90;;;;;;4957542;28;19929;-75
2023/08/16 09:18:45;;;;;;;;;;;19.70;99.90;;;;;;4956499;29;19929;-75
2023/08/16 09:21:14;;;;;;;;;;;19.80;99.90;;;;;;4956016;28;19962;-75
2023/08/16 09:23:39;;;;;;;;;;;20.00;99.90;;;;;;4955672;29;20348;-75
2023/08/16 09:26:12;;;;;;;;;;;20.10;99.90;;;;;;4956047;29;20013;-78
2023/08/16 09:28:37;;;;;;;;;;;20.20;99.90;;;;;;4956466;29;20368;-77
2023/08/16 09:31:04;;;;;;;;;;;20.20;99.90;;;;;;4956870;28;19928;-77
2023/08/16 09:33:33;;;;;;;;;;;20.30;99.90;;;;;;4957144;28;20257;-77
2023/08/16 09:35:58;;;;;;;;;;;20.30;99.90;;;;;;4956025;29;19930;-75
2023/08/16 09:38:24;;;;;;;;;;;20.40;99.90;;;;;;4939731;29;20400;-77
2023/08/16 09:40:53;;;;;;;;;;;20.50;99.90;;;;;;4955562;28;19930;-75
2023/08/16 09:43:19;;;;;;;;;;;20.60;99.90;;;;;;4956912;28;20241;-75
2023/08/16 09:45:49;;;;;;;;;;;20.70;99.90;;;;;;4955468;29;20058;-76
2023/08/16 09:48:14;;;;;;;;;;;20.80;99.90;;;;;;4955387;29;19933;-75
2023/08/16 09:50:40;;;;;;;;;;;20.90;99.90;;;;;;4955378;28;20300;-75
2023/08/16 09:53:06;;;;;;;;;;;21.10;99.90;;;;;;4956766;28;19923;-76
2023/08/16 09:55:32;;;;;;;;;;;21.20;99.90;;;;;;4955178;29;19922;-79
2023/08/16 09:57:59;;;;;;;;;;;21.20;99.90;;;;;;4955487;29;19926;-79
2023/08/16 10:00:25;;;;;;;;;;;21.30;99.90;;;;;;4956543;28;20013;-78
2023/08/16 10:02:52;;;;;;;;;;;21.50;99.90;;;;;;4955366;29;19927;-77
2023/08/16 10:05:18;;;;;;;;;;;21.60;99.90;;;;;;4939283;29;19922;-76
2023/08/16 10:07:43;;;;;;;;;;;21.70;99.90;;;;;;4955257;29;19922;-77
2023/08/16 10:10:09;;;;;;;;;;;21.80;99.90;;;;;;4955147;29;19969;-77
2023/08/16 10:12:36;;;;;;;;;;;21.90;99.90;;;;;;4954903;28;20288;-75
2023/08/16 10:15:02;;;;;;;;;;;22.00;99.90;;;;;;4956590;28;19923;-76
2023/08/16 10:17:28;;;;;;;;;;;22.10;99.90;;;;;;4955839;29;19923;-77
2023/08/16 10:19:58;;;;;;;;;;;22.20;99.90;;;;;;4955232;29;19968;-77
2023/08/16 10:22:27;;;;;;;;;;;22.20;99.90;;;;;;4956588;28;19967;-75
2023/08/16 10:24:54;;;;;;;;;;;22.30;99.90;;;;;;4955154;29;19986;-77
2023/08/16 10:27:20;;;;;;;;;;;22.40;99.90;;;;;;4955349;29;19922;-76
2023/08/16 10:29:48;;;;;;;;;;;22.50;99.90;;;;;;4956436;28;19986;-77
2023/08/16 10:32:16;;;;;;;;;;;22.50;99.90;;;;;;4954835;28;20074;-75
2023/08/16 10:34:41;;;;;;;;;;;22.50;99.90;;;;;;4938643;29;20383;-76
2023/08/16 10:37:08;;;;;;;;;;;22.60;99.90;;;;;;4954528;29;19929;-76
2023/08/16 10:39:33;;;;;;;;;;;22.70;99.90;;;;;;4955797;28;19923;-76
2023/08/16 10:42:02;;;;;;;;;;;22.70;99.90;;;;;;4955792;28;20307;-76
2023/08/16 10:44:28;;;;;;;;;;;22.70;99.90;;;;;;4954601;29;20302;-78
2023/08/16 10:46:54;;;;;;;;;;;22.90;99.90;;;;;;4956177;28;19922;-78
2023/08/16 10:49:19;;;;;;;;;;;23.00;99.90;;;;;;4938768;29;19926;-76
2023/08/16 10:51:46;;;;;;;;;;;23.10;99.90;;;;;;4955698;28;19933;-80
2023/08/16 10:54:12;;;;;;;;;;;23.20;99.90;;;;;;4955867;28;19926;-77
2023/08/16 10:56:44;;;;;;;;;;;23.30;99.90;;;;;;4957582;29;19969;-77
2023/08/16 10:59:10;;;;;;;;;;;23.40;99.90;;;;;;4958449;29;19929;-76
2023/08/16 11:01:43;;;;;;;;;;;23.40;99.90;;;;;;4958270;28;19922;-78
2023/08/16 11:04:09;;;;;;;;;;;23.20;99.90;;;;;;4959550;28;19933;-76
2023/08/16 11:06:37;;;;;;;;;;;23.00;99.90;;;;;;4958899;29;19927;-76
2023/08/16 11:09:03;;;;;;;;;;;22.70;99.90;;;;;;4959759;28;20038;-76
2023/08/16 11:11:28;;;;;;;;;;;22.70;99.90;;;;;;4959764;28;20392;-77
2023/08/16 11:13:58;;;;;;;;;;;22.80;99.90;;;;;;4959398;28;20392;-77
2023/08/16 11:16:23;;;;;;;;;;;23.00;99.90;;;;;;4958081;29;19922;-76
2023/08/16 11:18:49;;;;;;;;;;;23.20;99.90;;;;;;4957848;29;19922;-76
2023/08/16 11:21:16;;;;;;;;;;;23.40;99.90;;;;;;4958030;28;19933;-76
2023/08/16 11:23:42;;;;;;;;;;;23.50;99.90;;;;;;4959014;28;19927;-75
2023/08/16 11:26:08;;;;;;;;;;;23.30;99.90;;;;;;4958261;29;19923;-77
2023/08/16 11:28:34;;;;;;;;;;;23.20;99.90;;;;;;4959402;28;19972;-74
2023/08/16 11:31:01;;;;;;;;;;;23.20;99.90;;;;;;4957953;28;19944;-77
2023/08/16 11:33:34;;;;;;;;;;;23.20;99.90;;;;;;4959656;28;19922;-78
2023/08/16 11:36:06;;;;;;;;;;;23.40;99.90;;;;;;4959459;28;19923;-76
2023/08/16 11:38:34;;;;;;;;;;;23.60;99.90;;;;;;4957732;29;19922;-77
2023/08/16 11:41:00;;;;;;;;;;;23.70;99.90;;;;;;4958076;28;20292;-76
2023/08/16 11:43:29;;;;;;;;;;;23.70;99.90;;;;;;4957686;29;19926;-77
2023/08/16 11:45:55;;;;;;;;;;;23.50;99.90;;;;;;4958899;28;20340;-76
2023/08/16 11:48:21;;;;;;;;;;;23.50;99.90;;;;;;4957332;29;19930;-76
2023/08/16 11:50:48;;;;;;;;;;;23.50;99.90;;;;;;4957423;28;19923;-77
2023/08/16 11:53:17;;;;;;;;;;;23.50;99.90;;;;;;4958735;28;20020;-77
2023/08/16 11:55:55;;;;;;;;;;;23.70;99.90;;;;;;4957563;29;19923;-76
2023/08/16 11:58:20;;;;;;;;;;;23.90;99.90;;;;;;4959026;28;19922;-76
2023/08/16 12:00:46;;;;;;;;;;;24.10;99.90;;;;;;4958698;28;19928;-75
2023/08/16 12:03:12;;;;;;;;;;;24.10;99.90;;;;;;4957184;29;20397;-77
2023/08/16 12:05:39;;;;;;;;;;;24.20;99.90;;;;;;4958719;28;20284;-76
2023/08/16 12:08:05;;;;;;;;;;;24.30;99.90;;;;;;4958522;28;20388;-78
2023/08/16 12:10:34;;;;;;;;;;;24.40;99.90;;;;;;4958171;28;20265;-78
2023/08/16 12:13:10;;;;;;;;;;;24.50;99.90;;;;;;4958816;28;19973;-78
2023/08/16 12:15:35;;;;;;;;;;;24.60;99.90;;;;;;4958612;28;19974;-76
2023/08/16 12:18:01;;;;;;;;;;;24.60;99.90;;;;;;4958398;28;20345;-75
2023/08/16 12:20:26;;;;;;;;;;;24.80;99.90;;;;;;4957052;28;20306;-78
2023/08/16 12:22:55;;;;;;;;;;;24.90;99.90;;;;;;4957408;29;19923;-76
2023/08/16 12:25:21;;;;;;;;;;;25.00;99.90;;;;;;4957378;29;19974;-75
2023/08/16 12:27:47;;;;;;;;;;;25.00;99.90;;;;;;4958047;28;20311;-76
2023/08/16 12:30:12;;;;;;;;;;;24.80;99.90;;;;;;4956727;29;19969;-78
2023/08/16 12:32:38;;;;;;;;;;;24.50;99.90;;;;;;4956741;28;19981;-78
2023/08/16 12:35:03;;;;;;;;;;;24.40;99.90;;;;;;4940719;29;19929;-78
2023/08/16 12:37:29;;;;;;;;;;;24.50;99.90;;;;;;4956680;29;19977;-79
2023/08/16 12:39:55;;;;;;;;;;;24.50;99.90;;;;;;4956596;29;19926;-78
2023/08/16 12:42:20;;;;;;;;;;;24.60;99.90;;;;;;4958066;28;19961;-76
2023/08/16 12:44:46;;;;;;;;;;;24.70;99.90;;;;;;4956949;29;19933;-75
2023/08/16 12:47:11;;;;;;;;;;;24.80;99.90;;;;;;4958049;28;20368;-76
2023/08/16 12:49:37;;;;;;;;;;;24.80;99.90;;;;;;4956700;29;19969;-77
2023/08/16 12:52:02;;;;;;;;;;;24.70;99.90;;;;;;4957457;28;20336;-76
2023/08/16 12:54:28;;;;;;;;;;;24.50;99.90;;;;;;4956617;29;20395;-76
2023/08/16 12:56:53;;;;;;;;;;;24.40;99.90;;;;;;4957583;28;19923;-76
2023/08/16 12:59:19;;;;;;;;;;;24.30;99.90;;;;;;4956301;29;19922;-78
2023/08/16 13:01:45;;;;;;;;;;;24.40;99.90;;;;;;4956136;28;19930;-77
2023/08/16 13:04:11;;;;;;;;;;;24.40;99.90;;;;;;4957439;28;19926;-76
2023/08/16 13:06:37;;;;;;;;;;;24.50;99.90;;;;;;4956340;29;20005;-77
2023/08/16 13:09:02;;;;;;;;;;;24.50;99.90;;;;;;4956465;29;20368;-76
2023/08/16 13:11:28;;;;;;;;;;;24.50;99.90;;;;;;4956017;28;19929;-75
2023/08/16 13:13:54;;;;;;;;;;;24.60;99.90;;;;;;4956046;29;19923;-75
2023/08/16 13:16:20;;;;;;;;;;;24.80;99.90;;;;;;4957357;28;19929;-76
2023/08/16 13:18:46;;;;;;;;;;;24.90;99.90;;;;;;4955219;28;20380;-78
2023/08/16 13:21:11;;;;;;;;;;;25.00;99.90;;;;;;4955982;28;19977;-76
2023/08/16 13:23:37;;;;;;;;;;;25.00;99.90;;;;;;4955621;29;20013;-75
2023/08/16 13:26:02;;;;;;;;;;;25.10;99.90;;;;;;4955987;29;20006;-77
2023/08/16 13:28:28;;;;;;;;;;;25.20;99.90;;;;;;4955634;29;19922;-78
2023/08/16 13:30:53;;;;;;;;;;;25.30;99.90;;;;;;4955453;28;19923;-78
2023/08/16 13:33:19;;;;;;;;;;;25.30;99.90;;;;;;4939663;29;20344;-78
2023/08/16 13:35:45;;;;;;;;;;;25.30;99.90;;;;;;4955279;29;19926;-76
2023/08/16 13:38:11;;;;;;;;;;;25.40;99.90;;;;;;4955710;29;19930;-77
2023/08/16 13:40:38;;;;;;;;;;;25.40;99.90;;;;;;4955279;28;20315;-77
2023/08/16 13:43:04;;;;;;;;;;;25.30;99.90;;;;;;4955217;29;19933;-76
2023/08/16 13:45:29;;;;;;;;;;;25.40;99.90;;;;;;4956992;28;19922;-77
2023/08/16 13:47:55;;;;;;;;;;;25.40;99.90;;;;;;4955001;29;20300;-78
2023/08/16 13:50:21;;;;;;;;;;;25.30;99.90;;;;;;4955574;28;19922;-75
2023/08/16 13:52:46;;;;;;;;;;;25.40;99.90;;;;;;4956318;28;20287;-77
2023/08/16 13:55:14;;;;;;;;;;;25.40;99.90;;;;;;4956346;28;19967;-76
2023/08/16 13:57:40;;;;;;;;;;;25.30;99.90;;;;;;4955037;29;19922;-77
2023/08/16 14:00:07;;;;;;;;;;;25.10;99.90;;;;;;4955046;29;19973;-76
2023/08/16 14:02:33;;;;;;;;;;;25.10;99.90;;;;;;4955115;28;19923;-78
2023/08/16 14:04:58;;;;;;;;;;;25.10;99.90;;;;;;4955282;29;19977;-79
2023/08/16 14:07:24;;;;;;;;;;;25.20;99.90;;;;;;4956737;28;20094;-78
2023/08/16 14:09:51;;;;;;;;;;;25.20;99.90;;;;;;4956273;28;19952;-77
2023/08/16 14:12:17;;;;;;;;;;;25.30;99.90;;;;;;4956450;28;19923;-76
2023/08/16 14:14:43;;;;;;;;;;;25.30;99.90;;;;;;4955362;29;20021;-77
2023/08/16 14:17:08;;;;;;;;;;;25.30;99.90;;;;;;4954986;29;19927;-75
2023/08/16 14:19:34;;;;;;;;;;;25.30;99.90;;;;;;4954695;29;19973;-75
2023/08/16 14:21:59;;;;;;;;;;;25.30;99.90;;;;;;4954770;28;19927;-77
2023/08/16 14:24:25;;;;;;;;;;;25.40;99.90;;;;;;4954748;29;19930;-75
2023/08/16 14:26:51;;;;;;;;;;;25.40;99.90;;;;;;4954517;29;20277;-77
2023/08/16 14:29:16;;;;;;;;;;;25.50;99.90;;;;;;4954765;28;19922;-75
2023/08/16 14:31:42;;;;;;;;;;;25.50;99.90;;;;;;4955133;28;19929;-77
2023/08/16 14:34:07;;;;;;;;;;;25.30;99.90;;;;;;4954526;29;19929;-75
2023/08/16 14:36:33;;;;;;;;;;;25.30;99.90;;;;;;4954702;29;19922;-78
2023/08/16 14:38:59;;;;;;;;;;;25.30;99.90;;;;;;4954696;29;19972;-78
2023/08/16 14:41:27;;;;;;;;;;;25.30;99.90;;;;;;4954495;28;20009;-78
2023/08/16 14:43:53;;;;;;;;;;;25.00;99.90;;;;;;4955778;28;20029;-75
2023/08/16 14:46:19;;;;;;;;;;;25.00;99.90;;;;;;4954631;29;19976;-77
2023/08/16 14:48:44;;;;;;;;;;;25.10;99.90;;;;;;4956002;28;19962;-75
2023/08/16 14:51:10;;;;;;;;;;;25.20;99.90;;;;;;4954772;28;20345;-75
2023/08/16 14:53:36;;;;;;;;;;;25.30;99.90;;;;;;4955878;28;19922;-75
2023/08/16 14:56:01;;;;;;;;;;;25.30;99.90;;;;;;4955854;28;19978;-77
2023/08/16 14:58:27;;;;;;;;;;;25.30;99.90;;;;;;4954431;29;19922;-78
2023/08/16 15:00:53;;;;;;;;;;;25.30;99.90;;;;;;4954735;28;19926;-76
2023/08/16 15:03:18;;;;;;;;;;;25.30;99.90;;;;;;4954336;29;20317;-75
2023/08/16 15:05:44;;;;;;;;;;;25.30;99.90;;;;;;4954383;29;19931;-75
2023/08/16 15:08:12;;;;;;;;;;;25.30;99.90;;;;;;4954791;29;19930;-76
2023/08/16 15:10:42;;;;;;;;;;;25.20;99.90;;;;;;4956058;28;19973;-76
2023/08/16 15:13:08;;;;;;;;;;;25.20;99.90;;;;;;4954774;29;20324;-76
2023/08/16 15:15:33;;;;;;;;;;;25.10;99.90;;;;;;4954212;29;19923;-78
2023/08/16 15:17:59;;;;;;;;;;;25.00;99.90;;;;;;4954580;29;19930;-77
2023/08/16 15:20:24;;;;;;;;;;;25.00;99.90;;;;;;4956038;28;20009;-78
2023/08/16 15:22:50;;;;;;;;;;;24.90;99.90;;;;;;4954221;29;19922;-77
2023/08/16 15:25:15;;;;;;;;;;;24.90;99.90;;;;;;4955551;28;20066;-78
2023/08/16 15:27:41;;;;;;;;;;;24.80;99.90;;;;;;4955319;28;19974;-78
2023/08/16 15:30:07;;;;;;;;;;;24.70;99.90;;;;;;4954335;29;19930;-75
2023/08/16 15:32:32;;;;;;;;;;;24.70;99.90;;;;;;4954653;28;20029;-76
2023/08/16 15:34:58;;;;;;;;;;;24.70;99.90;;;;;;4955834;28;19969;-75
2023/08/16 15:37:23;;;;;;;;;;;24.70;99.90;;;;;;4955517;28;19922;-78
2023/08/16 15:39:49;;;;;;;;;;;24.70;99.90;;;;;;4954229;29;19929;-78
2023/08/16 15:42:14;;;;;;;;;;;24.70;99.90;;;;;;4956876;28;19926;-75
2023/08/16 15:44:40;;;;;;;;;;;24.70;99.90;;;;;;4959125;28;19974;-76
2023/08/16 15:47:05;;;;;;;;;;;24.70;99.90;;;;;;4957847;29;19922;-78
2023/08/16 15:49:31;;;;;;;;;;;24.70;99.90;;;;;;4957524;29;20375;-77
2023/08/16 15:51:56;;;;;;;;;;;24.70;99.90;;;;;;4957708;28;19923;-76
2023/08/16 15:54:22;;;;;;;;;;;24.70;99.90;;;;;;4957441;29;19923;-78
2023/08/16 15:56:48;;;;;;;;;;;24.70;99.90;;;;;;4957698;29;19923;-78
2023/08/16 15:59:14;;;;;;;;;;;24.70;99.90;;;;;;4957470;29;19922;-76
2023/08/16 16:01:39;;;;;;;;;;;24.60;99.90;;;;;;4957434;28;19929;-77
2023/08/16 16:04:05;;;;;;;;;;;24.60;99.90;;;;;;4957276;29;19930;-78
2023/08/16 16:06:30;;;;;;;;;;;24.50;99.90;;;;;;4958404;28;19930;-75
2023/08/16 16:08:56;;;;;;;;;;;24.50;99.90;;;;;;4957668;29;20439;-75
2023/08/16 16:11:28;;;;;;;;;;;24.40;99.90;;;;;;4958449;28;20381;-76
2023/08/16 16:13:58;;;;;;;;;;;24.40;99.90;;;;;;4957389;29;19926;-75
2023/08/16 16:16:24;;;;;;;;;;;24.30;99.90;;;;;;4958283;28;19922;-75
2023/08/16 16:18:49;;;;;;;;;;;24.30;99.90;;;;;;4941108;29;19922;-76
2023/08/16 16:21:15;;;;;;;;;;;24.20;99.90;;;;;;4958635;28;19974;-77
2023/08/16 16:23:41;;;;;;;;;;;24.20;99.90;;;;;;4956699;29;20009;-76
2023/08/16 16:26:07;;;;;;;;;;;24.20;99.90;;;;;;4957801;28;19923;-76
2023/08/16 16:28:33;;;;;;;;;;;24.20;99.90;;;;;;4956443;29;19969;-78
2023/08/16 16:30:59;;;;;;;;;;;24.20;99.90;;;;;;4940996;29;19926;-76
2023/08/16 16:33:25;;;;;;;;;;;24.20;99.90;;;;;;4956935;29;19982;-74
2023/08/16 16:35:51;;;;;;;;;;;24.10;99.90;;;;;;4956848;29;19922;-77
2023/08/16 16:38:17;;;;;;;;;;;24.00;99.90;;;;;;4957125;29;19929;-77
2023/08/16 16:40:43;;;;;;;;;;;23.90;99.90;;;;;;4957797;28;19923;-78
2023/08/16 16:43:08;;;;;;;;;;;23.80;99.90;;;;;;4940657;29;19933;-78
2023/08/16 16:45:34;;;;;;;;;;;23.70;99.90;;;;;;4957851;28;19922;-78
2023/08/16 16:47:59;;;;;;;;;;;23.60;99.90;;;;;;4957704;29;20284;-76
2023/08/16 16:50:25;;;;;;;;;;;23.60;99.90;;;;;;4956375;28;20387;-76
2023/08/16 16:52:50;;;;;;;;;;;23.50;99.90;;;;;;4956627;28;20017;-76
2023/08/16 16:55:16;;;;;;;;;;;23.40;99.90;;;;;;4956298;29;19922;-75
2023/08/16 16:57:41;;;;;;;;;;;23.30;99.90;;;;;;4956381;29;19922;-78
2023/08/16 17:00:07;;;;;;;;;;;23.20;99.90;;;;;;4956296;29;20289;-75
2023/08/16 17:02:33;;;;;;;;;;;23.10;99.90;;;;;;4955960;28;20292;-77
2023/08/16 17:04:59;;;;;;;;;;;22.90;99.90;;;;;;4957798;28;20036;-76
2023/08/16 17:07:24;;;;;;;;;;;22.90;99.90;;;;;;4958215;28;19985;-76
2023/08/16 17:09:50;;;;;;;;;;;22.80;99.90;;;;;;4957862;28;19923;-76